createdAt,value
2022-10-21T00:00:33.289Z,0.00
2022-10-21T00:01:33.326Z,0.00
2022-10-21T00:02:33.227Z,0.00
2022-10-21T00:03:33.217Z,0.00
2022-10-21T00:04:33.214Z,0.00
2022-10-21T00:05:33.227Z,0.00
2022-10-21T00:06:33.206Z,0.00
2022-10-21T00:07:33.177Z,0.00
2022-10-21T00:08:33.233Z,0.00
2022-10-21T00:09:33.159Z,0.00
2022-10-21T00:10:33.173Z,0.00
2022-10-21T00:11:33.173Z,0.00
2022-10-21T00:12:33.115Z,0.00
2022-10-21T00:13:33.106Z,0.00
2022-10-21T00:14:33.102Z,0.00
2022-10-21T00:15:33.104Z,0.00
2022-10-21T00:16:33.098Z,0.00
2022-10-21T00:17:33.088Z,0.00
2022-10-21T00:18:33.047Z,0.00
2022-10-21T00:19:33.043Z,0.00
2022-10-21T00:20:35.971Z,0.00
2022-10-21T00:21:34.057Z,0.00
2022-10-21T00:22:33.010Z,0.00
2022-10-21T00:23:32.996Z,0.00
2022-10-21T00:24:33.001Z,0.00
2022-10-21T00:25:32.999Z,0.00
2022-10-21T00:26:36.210Z,0.00
2022-10-21T00:27:33.982Z,0.00
2022-10-21T00:28:32.942Z,0.00
2022-10-21T00:29:32.929Z,0.00
2022-10-21T00:30:32.936Z,0.00
2022-10-21T00:31:32.925Z,0.00
2022-10-21T00:32:32.896Z,0.00
2022-10-21T00:33:32.904Z,0.00
2022-10-21T00:34:32.873Z,0.00
2022-10-21T00:35:32.865Z,0.00
2022-10-21T00:36:32.864Z,0.00
2022-10-21T00:37:32.835Z,0.00
2022-10-21T00:38:32.830Z,0.00
2022-10-21T00:39:32.850Z,0.00
2022-10-21T00:40:32.819Z,0.00
2022-10-21T00:41:32.815Z,0.00
2022-10-21T00:42:32.782Z,0.00
2022-10-21T00:43:32.783Z,0.00
2022-10-21T00:44:32.776Z,0.00
2022-10-21T00:45:32.750Z,0.00
2022-10-21T00:46:32.737Z,0.00
2022-10-21T00:47:32.745Z,0.00
2022-10-21T00:48:32.746Z,0.00
2022-10-21T00:49:32.704Z,0.00
2022-10-21T00:50:32.726Z,0.00
2022-10-21T00:51:32.678Z,0.00
2022-10-21T00:52:32.779Z,0.00
2022-10-21T00:53:32.682Z,0.00
2022-10-21T00:54:32.648Z,0.00
2022-10-21T00:55:32.635Z,0.00
2022-10-21T00:56:32.659Z,0.00
2022-10-21T00:57:32.641Z,0.00
2022-10-21T00:58:32.599Z,0.00
2022-10-21T00:59:32.593Z,0.00
2022-10-21T01:00:32.582Z,0.00
2022-10-21T01:01:32.718Z,0.00
2022-10-21T01:02:32.559Z,0.00
2022-10-21T01:03:32.547Z,0.00
2022-10-21T01:04:32.535Z,0.00
2022-10-21T01:05:32.564Z,0.00
2022-10-21T01:06:32.532Z,0.00
2022-10-21T01:07:35.291Z,0.00
2022-10-21T01:08:33.564Z,0.00
2022-10-21T01:09:34.055Z,0.00
2022-10-21T01:10:32.489Z,0.00
2022-10-21T01:11:32.469Z,0.00
2022-10-21T01:12:32.461Z,0.00
2022-10-21T01:13:32.443Z,0.00
2022-10-21T01:14:32.421Z,0.00
2022-10-21T01:15:32.455Z,0.00
2022-10-21T01:16:32.402Z,0.00
2022-10-21T01:17:44.129Z,0.00
2022-10-21T01:18:33.395Z,0.00
2022-10-21T01:19:32.409Z,0.00
2022-10-21T01:20:32.353Z,0.00
2022-10-21T01:21:32.344Z,0.00
2022-10-21T01:22:32.352Z,0.00
2022-10-21T01:23:32.462Z,0.00
2022-10-21T01:24:32.357Z,0.00
2022-10-21T01:25:32.321Z,0.00
2022-10-21T01:26:32.292Z,0.00
2022-10-21T01:27:32.295Z,0.00
2022-10-21T01:28:32.285Z,0.00
2022-10-21T01:29:32.255Z,0.00
2022-10-21T01:30:32.247Z,0.00
2022-10-21T01:31:32.254Z,0.00
2022-10-21T01:32:32.215Z,0.00
2022-10-21T01:33:32.233Z,0.00
2022-10-21T01:34:32.201Z,0.00
2022-10-21T01:35:32.210Z,0.00
2022-10-21T01:36:32.196Z,0.00
2022-10-21T01:37:32.250Z,0.00
2022-10-21T01:38:32.178Z,0.00
2022-10-21T01:39:32.153Z,0.00
2022-10-21T01:40:32.149Z,0.00
2022-10-21T01:41:32.122Z,0.00
2022-10-21T01:42:32.109Z,0.00
2022-10-21T01:43:32.134Z,0.00
2022-10-21T01:44:32.099Z,0.00
2022-10-21T01:45:32.073Z,0.00
2022-10-21T01:46:32.061Z,0.00
2022-10-21T01:47:32.058Z,0.00
2022-10-21T01:48:32.084Z,0.00
2022-10-21T01:49:32.033Z,0.00
2022-10-21T01:50:32.015Z,0.00
2022-10-21T01:51:32.005Z,0.00
2022-10-21T01:52:31.991Z,0.00
2022-10-21T01:53:32.009Z,0.00
2022-10-21T01:54:31.988Z,0.00
2022-10-21T01:55:31.979Z,0.00
2022-10-21T01:56:31.952Z,0.00
2022-10-21T01:57:31.961Z,0.00
2022-10-21T01:58:31.929Z,0.00
2022-10-21T01:59:31.914Z,0.00
2022-10-21T02:00:31.918Z,0.00
2022-10-21T02:01:31.983Z,0.00
2022-10-21T02:02:31.885Z,0.00
2022-10-21T02:03:31.888Z,0.00
2022-10-21T02:04:31.867Z,0.00
2022-10-21T02:05:31.851Z,0.00
2022-10-21T02:06:31.836Z,0.00
2022-10-21T02:07:31.827Z,0.00
2022-10-21T02:08:31.894Z,0.00
2022-10-21T02:10:31.814Z,0.00
2022-10-21T02:11:31.788Z,0.00
2022-10-21T02:12:31.769Z,0.00
2022-10-21T02:13:31.779Z,0.00
2022-10-21T02:14:31.783Z,0.00
2022-10-21T02:15:31.741Z,0.00
2022-10-21T02:16:31.740Z,0.00
2022-10-21T02:17:31.710Z,0.00
2022-10-21T02:18:31.707Z,0.00
2022-10-21T02:20:31.720Z,0.00
2022-10-21T02:21:31.683Z,0.00
2022-10-21T02:22:31.655Z,0.00
2022-10-21T02:23:31.655Z,0.00
2022-10-21T02:24:31.634Z,0.00
2022-10-21T02:25:31.647Z,0.00
2022-10-21T02:26:31.627Z,0.00
2022-10-21T02:27:31.618Z,0.00
2022-10-21T02:28:31.655Z,0.00
2022-10-21T02:29:31.602Z,0.00
2022-10-21T02:30:31.576Z,0.00
2022-10-21T02:31:31.578Z,0.00
2022-10-21T02:32:31.576Z,0.00
2022-10-21T02:33:31.536Z,0.00
2022-10-21T02:34:31.522Z,0.00
2022-10-21T02:35:31.531Z,0.00
2022-10-21T02:36:31.510Z,0.00
2022-10-21T02:37:31.567Z,0.00
2022-10-21T02:38:31.480Z,0.00
2022-10-21T02:39:31.489Z,0.00
2022-10-21T02:40:31.472Z,0.00
2022-10-21T02:41:31.442Z,0.00
2022-10-21T02:42:31.530Z,0.00
2022-10-21T02:43:31.434Z,0.00
2022-10-21T02:44:31.423Z,0.00
2022-10-21T02:45:31.401Z,0.00
2022-10-21T02:46:31.452Z,0.00
2022-10-21T02:47:31.380Z,0.00
2022-10-21T02:48:31.382Z,0.00
2022-10-21T02:49:31.375Z,0.00
2022-10-21T02:50:32.178Z,0.00
2022-10-21T02:51:31.333Z,0.00
2022-10-21T02:52:31.319Z,0.00
2022-10-21T02:53:31.333Z,0.00
2022-10-21T02:54:31.298Z,0.00
2022-10-21T02:55:31.296Z,0.00
2022-10-21T02:56:31.306Z,0.00
2022-10-21T02:57:31.278Z,0.00
2022-10-21T02:58:31.277Z,0.00
2022-10-21T02:59:31.250Z,0.00
2022-10-21T03:00:32.917Z,0.00
2022-10-21T03:01:31.318Z,0.00
2022-10-21T03:02:31.205Z,0.00
2022-10-21T03:03:31.214Z,0.00
2022-10-21T03:04:31.202Z,0.00
2022-10-21T03:06:31.170Z,0.00
2022-10-21T03:07:31.188Z,0.00
2022-10-21T03:08:31.216Z,0.00
2022-10-21T03:09:31.146Z,0.00
2022-10-21T03:10:31.196Z,0.00
2022-10-21T03:11:31.109Z,0.00
2022-10-21T03:12:31.105Z,0.00
2022-10-21T03:13:31.110Z,0.00
2022-10-21T03:14:31.113Z,0.00
2022-10-21T03:15:31.084Z,0.00
2022-10-21T03:16:31.059Z,0.00
2022-10-21T03:17:31.046Z,0.00
2022-10-21T03:18:31.048Z,0.00
2022-10-21T03:19:31.020Z,0.00
2022-10-21T03:20:31.049Z,0.00
2022-10-21T03:21:30.993Z,0.00
2022-10-21T03:22:30.984Z,0.00
2022-10-21T03:23:30.977Z,0.00
2022-10-21T03:24:30.984Z,0.00
2022-10-21T03:25:35.287Z,0.00
2022-10-21T03:26:30.961Z,0.00
2022-10-21T03:28:30.923Z,0.00
2022-10-21T03:29:30.928Z,0.00
2022-10-21T03:30:30.906Z,0.00
2022-10-21T03:31:30.883Z,0.00
2022-10-21T03:32:30.894Z,0.00
2022-10-21T03:33:30.859Z,0.00
2022-10-21T03:34:30.872Z,0.00
2022-10-21T03:35:30.863Z,0.00
2022-10-21T03:36:30.841Z,0.00
2022-10-21T03:37:30.816Z,0.00
2022-10-21T03:38:30.828Z,0.00
2022-10-21T03:39:30.788Z,0.00
2022-10-21T03:40:30.802Z,0.00
2022-10-21T03:41:30.772Z,0.00
2022-10-21T03:42:30.754Z,0.00
2022-10-21T03:43:30.820Z,0.00
2022-10-21T03:44:30.755Z,0.00
2022-10-21T03:45:30.749Z,0.00
2022-10-21T03:46:30.720Z,0.00
2022-10-21T03:47:30.702Z,0.00
2022-10-21T03:48:30.690Z,0.00
2022-10-21T03:49:30.729Z,0.00
2022-10-21T03:50:30.709Z,0.00
2022-10-21T03:51:30.655Z,0.00
2022-10-21T03:52:30.657Z,0.00
2022-10-21T03:53:42.794Z,0.00
2022-10-21T03:54:31.616Z,0.00
2022-10-21T03:55:30.622Z,0.00
2022-10-21T03:56:30.618Z,0.00
2022-10-21T03:57:30.589Z,0.00
2022-10-21T03:58:30.578Z,0.00
2022-10-21T03:59:30.571Z,0.00
2022-10-21T04:00:31.683Z,0.00
2022-10-21T04:01:30.591Z,0.00
2022-10-21T04:02:30.534Z,0.00
2022-10-21T04:03:30.530Z,0.00
2022-10-21T04:04:30.511Z,0.00
2022-10-21T04:05:30.547Z,0.00
2022-10-21T04:06:30.487Z,0.00
2022-10-21T04:07:30.483Z,0.00
2022-10-21T04:08:30.558Z,0.00
2022-10-21T04:09:30.450Z,0.00
2022-10-21T04:10:30.448Z,0.00
2022-10-21T04:11:30.445Z,0.00
2022-10-21T04:12:30.453Z,0.00
2022-10-21T04:13:30.404Z,0.00
2022-10-21T04:14:30.402Z,0.00
2022-10-21T04:15:30.380Z,0.00
2022-10-21T04:16:30.387Z,0.00
2022-10-21T04:17:30.358Z,0.00
2022-10-21T04:18:30.369Z,0.00
2022-10-21T04:19:30.340Z,0.00
2022-10-21T04:20:30.334Z,0.00
2022-10-21T04:21:30.322Z,0.00
2022-10-21T04:22:30.354Z,0.00
2022-10-21T04:23:30.285Z,0.00
2022-10-21T04:24:30.292Z,0.00
2022-10-21T04:25:30.279Z,0.00
2022-10-21T04:26:30.257Z,0.00
2022-10-21T04:27:30.298Z,0.00
2022-10-21T04:28:30.251Z,0.00
2022-10-21T04:29:30.230Z,0.00
2022-10-21T04:30:30.236Z,0.00
2022-10-21T04:31:32.161Z,0.00
2022-10-21T04:32:30.212Z,0.00
2022-10-21T04:33:30.181Z,0.00
2022-10-21T04:34:30.189Z,0.00
2022-10-21T04:35:32.938Z,0.00
2022-10-21T04:36:30.141Z,0.00
2022-10-21T04:37:30.165Z,0.00
2022-10-21T04:38:30.121Z,0.00
2022-10-21T04:39:30.124Z,0.00
2022-10-21T04:40:30.110Z,0.00
2022-10-21T04:41:30.081Z,0.00
2022-10-21T04:42:30.104Z,0.00
2022-10-21T04:43:30.095Z,0.00
2022-10-21T04:44:30.044Z,0.00
2022-10-21T04:45:30.057Z,0.00
2022-10-21T04:46:30.035Z,0.00
2022-10-21T04:47:30.020Z,0.00
2022-10-21T04:48:30.014Z,0.00
2022-10-21T04:49:30.025Z,0.00
2022-10-21T04:50:30.010Z,0.00
2022-10-21T04:52:29.958Z,0.00
2022-10-21T04:53:29.957Z,0.00
2022-10-21T04:54:29.948Z,0.00
2022-10-21T04:55:29.958Z,0.00
2022-10-21T04:56:29.946Z,0.00
2022-10-21T04:57:29.932Z,0.00
2022-10-21T04:58:29.889Z,0.00
2022-10-21T04:59:29.885Z,0.00
2022-10-21T05:00:29.867Z,0.00
2022-10-21T05:01:29.996Z,0.00
2022-10-21T05:02:29.878Z,0.00
2022-10-21T05:03:29.832Z,0.00
2022-10-21T05:04:29.844Z,0.00
2022-10-21T05:05:29.812Z,0.00
2022-10-21T05:06:29.886Z,0.00
2022-10-21T05:07:29.787Z,0.00
2022-10-21T05:08:29.880Z,0.00
2022-10-21T05:09:29.767Z,0.00
2022-10-21T05:10:29.803Z,0.00
2022-10-21T05:11:29.737Z,0.00
2022-10-21T05:12:29.822Z,0.00
2022-10-21T05:13:29.742Z,0.00
2022-10-21T05:14:29.739Z,0.00
2022-10-21T05:15:29.693Z,0.00
2022-10-21T05:16:29.700Z,0.00
2022-10-21T05:17:29.695Z,0.00
2022-10-21T05:18:29.683Z,0.00
2022-10-21T05:19:31.432Z,0.00
2022-10-21T05:20:29.652Z,0.00
2022-10-21T05:21:29.703Z,0.00
2022-10-21T05:22:29.613Z,0.00
2022-10-21T05:23:29.602Z,0.00
2022-10-21T05:24:29.590Z,0.00
2022-10-21T05:25:31.831Z,0.00
2022-10-21T05:26:29.621Z,0.00
2022-10-21T05:27:29.580Z,0.00
2022-10-21T05:28:29.561Z,0.00
2022-10-21T05:29:29.538Z,0.00
2022-10-21T05:30:29.598Z,0.00
2022-10-21T05:31:29.537Z,0.00
2022-10-21T05:32:29.518Z,0.00
2022-10-21T05:33:29.498Z,0.00
2022-10-21T05:34:29.477Z,0.00
2022-10-21T05:35:29.466Z,0.00
2022-10-21T05:36:29.458Z,0.00
2022-10-21T05:37:29.455Z,0.00
2022-10-21T05:38:29.471Z,0.00
2022-10-21T05:39:29.494Z,0.00
2022-10-21T05:40:29.414Z,0.00
2022-10-21T05:41:29.396Z,0.00
2022-10-21T05:42:29.394Z,0.00
2022-10-21T05:43:29.415Z,0.00
2022-10-21T05:44:29.390Z,0.00
2022-10-21T05:45:29.350Z,0.00
2022-10-21T05:46:29.340Z,0.00
2022-10-21T05:47:29.356Z,0.00
2022-10-21T05:48:36.451Z,0.00
2022-10-21T05:49:29.309Z,0.00
2022-10-21T05:50:29.294Z,0.00
2022-10-21T05:51:29.297Z,0.00
2022-10-21T05:52:29.289Z,0.00
2022-10-21T05:53:29.270Z,0.00
2022-10-21T05:54:29.247Z,0.00
2022-10-21T05:55:29.236Z,5.62
2022-10-21T05:56:29.225Z,5.62
2022-10-21T05:57:29.217Z,5.62
2022-10-21T05:58:29.225Z,5.62
2022-10-21T05:59:29.195Z,5.62
2022-10-21T06:00:29.246Z,5.62
2022-10-21T06:01:29.254Z,5.62
2022-10-21T06:02:36.506Z,5.62
2022-10-21T06:03:29.171Z,5.62
2022-10-21T06:04:29.137Z,5.62
2022-10-21T06:05:29.142Z,11.25
2022-10-21T06:06:29.122Z,11.25
2022-10-21T06:07:29.101Z,11.25
2022-10-21T06:08:29.212Z,11.25
2022-10-21T06:09:29.094Z,11.25
2022-10-21T06:10:29.311Z,11.25
2022-10-21T06:11:29.079Z,11.25
2022-10-21T06:12:31.600Z,11.25
2022-10-21T06:13:29.058Z,11.25
2022-10-21T06:14:29.021Z,16.88
2022-10-21T06:15:29.011Z,16.88
2022-10-21T06:16:29.033Z,16.88
2022-10-21T06:17:28.983Z,16.88
2022-10-21T06:18:28.992Z,16.88
2022-10-21T06:19:28.961Z,16.88
2022-10-21T06:20:28.954Z,16.88
2022-10-21T06:21:28.940Z,16.88
2022-10-21T06:22:28.933Z,16.88
2022-10-21T06:23:28.965Z,16.88
2022-10-21T06:24:28.909Z,16.88
2022-10-21T06:25:28.905Z,22.50
2022-10-21T06:26:30.966Z,22.50
2022-10-21T06:27:28.871Z,22.50
2022-10-21T06:28:28.860Z,22.50
2022-10-21T06:29:28.870Z,22.50
2022-10-21T06:30:28.837Z,22.50
2022-10-21T06:31:28.847Z,22.50
2022-10-21T06:32:28.833Z,22.50
2022-10-21T06:33:28.852Z,22.50
2022-10-21T06:34:28.826Z,22.50
2022-10-21T06:35:28.781Z,22.50
2022-10-21T06:36:28.770Z,28.12
2022-10-21T06:37:28.765Z,28.12
2022-10-21T06:38:28.769Z,28.12
2022-10-21T06:39:28.755Z,28.12
2022-10-21T06:40:28.749Z,28.12
2022-10-21T06:41:28.714Z,28.12
2022-10-21T06:42:28.706Z,28.12
2022-10-21T06:43:28.720Z,28.12
2022-10-21T06:44:28.699Z,33.75
2022-10-21T06:45:28.670Z,33.75
2022-10-21T06:46:28.673Z,33.75
2022-10-21T06:47:28.652Z,33.75
2022-10-21T06:48:28.968Z,33.75
2022-10-21T06:49:28.793Z,33.75
2022-10-21T06:50:28.628Z,33.75
2022-10-21T06:51:28.606Z,33.75
2022-10-21T06:52:28.592Z,33.75
2022-10-21T06:53:28.582Z,33.75
2022-10-21T06:54:28.589Z,33.75
2022-10-21T06:55:28.568Z,33.75
2022-10-21T06:56:28.565Z,39.38
2022-10-21T06:57:28.533Z,39.38
2022-10-21T06:58:28.521Z,39.38
2022-10-21T06:59:28.533Z,39.38
2022-10-21T07:01:34.530Z,39.38
2022-10-21T07:02:29.486Z,39.38
2022-10-21T07:03:28.464Z,39.38
2022-10-21T07:04:28.473Z,39.38
2022-10-21T07:05:28.459Z,39.38
2022-10-21T07:06:28.499Z,39.38
2022-10-21T07:07:28.446Z,39.38
2022-10-21T07:08:46.202Z,39.38
2022-10-21T07:09:29.483Z,39.38
2022-10-21T07:10:28.417Z,39.38
2022-10-21T07:11:28.394Z,45.00
2022-10-21T07:12:28.408Z,45.00
2022-10-21T07:13:28.355Z,45.00
2022-10-21T07:14:28.351Z,45.00
2022-10-21T07:15:28.332Z,45.00
2022-10-21T07:16:28.349Z,45.00
2022-10-21T07:17:28.315Z,45.00
2022-10-21T07:18:28.324Z,45.00
2022-10-21T07:19:28.306Z,45.00
2022-10-21T07:20:28.321Z,45.00
2022-10-21T07:21:28.270Z,45.00
2022-10-21T07:22:28.258Z,45.00
2022-10-21T07:23:28.243Z,45.00
2022-10-21T07:24:28.268Z,45.00
2022-10-21T07:25:28.266Z,45.00
2022-10-21T07:26:28.213Z,45.00
2022-10-21T07:27:28.195Z,45.00
2022-10-21T07:28:28.202Z,39.38
2022-10-21T07:29:28.174Z,39.38
2022-10-21T07:30:28.162Z,39.38
2022-10-21T07:31:28.182Z,39.38
2022-10-21T07:32:28.152Z,39.38
2022-10-21T07:33:28.129Z,39.38
2022-10-21T07:34:28.118Z,39.38
2022-10-21T07:35:28.161Z,39.38
2022-10-21T07:36:28.131Z,39.38
2022-10-21T07:37:28.086Z,39.38
2022-10-21T07:38:28.077Z,39.38
2022-10-21T07:39:28.082Z,39.38
2022-10-21T07:40:28.079Z,39.38
2022-10-21T07:41:28.055Z,39.38
2022-10-21T07:42:28.034Z,45.00
2022-10-21T07:43:28.028Z,45.00
2022-10-21T07:44:28.040Z,45.00
2022-10-21T07:45:27.993Z,45.00
2022-10-21T07:46:28.002Z,39.38
2022-10-21T07:47:28.004Z,39.38
2022-10-21T07:48:27.960Z,39.38
2022-10-21T07:49:28.640Z,39.38
2022-10-21T07:50:27.987Z,39.38
2022-10-21T07:51:31.014Z,39.38
2022-10-21T07:52:27.939Z,39.38
2022-10-21T07:53:27.915Z,39.38
2022-10-21T07:54:27.897Z,39.38
2022-10-21T07:55:27.881Z,39.38
2022-10-21T07:56:27.901Z,39.38
2022-10-21T07:57:27.887Z,39.38
2022-10-21T07:58:27.889Z,39.38
2022-10-21T07:59:27.864Z,39.38
2022-10-21T08:00:27.830Z,39.38
2022-10-21T08:01:28.002Z,45.00
2022-10-21T08:02:27.807Z,45.00
2022-10-21T08:03:27.806Z,45.00
2022-10-21T08:04:27.803Z,45.00
2022-10-21T08:05:27.767Z,50.62
2022-10-21T08:06:27.769Z,50.62
2022-10-21T08:07:27.762Z,50.62
2022-10-21T08:08:27.832Z,50.62
2022-10-21T08:09:27.727Z,50.62
2022-10-21T08:10:27.712Z,50.62
2022-10-21T08:11:27.749Z,50.62
2022-10-21T08:12:27.719Z,50.62
2022-10-21T08:13:27.677Z,50.62
2022-10-21T08:14:27.671Z,50.62
2022-10-21T08:15:27.654Z,50.62
2022-10-21T08:16:27.653Z,50.62
2022-10-21T08:17:27.658Z,50.62
2022-10-21T08:18:27.629Z,50.62
2022-10-21T08:19:27.610Z,50.62
2022-10-21T08:20:27.616Z,50.62
2022-10-21T08:21:27.594Z,50.62
2022-10-21T08:22:27.600Z,50.62
2022-10-21T08:23:27.565Z,50.62
2022-10-21T08:24:27.575Z,50.62
2022-10-21T08:25:27.544Z,50.62
2022-10-21T08:26:27.549Z,50.62
2022-10-21T08:27:27.523Z,50.62
2022-10-21T08:28:27.537Z,50.62
2022-10-21T08:29:27.517Z,50.62
2022-10-21T08:30:27.496Z,50.62
2022-10-21T08:31:27.484Z,50.62
2022-10-21T08:32:27.494Z,45.00
2022-10-21T08:33:27.455Z,45.00
2022-10-21T08:34:27.451Z,45.00
2022-10-21T08:35:27.430Z,45.00
2022-10-21T08:36:27.452Z,45.00
2022-10-21T08:37:27.438Z,45.00
2022-10-21T08:38:27.407Z,45.00
2022-10-21T08:39:27.384Z,45.00
2022-10-21T08:40:27.392Z,45.00
2022-10-21T08:41:27.408Z,39.38
2022-10-21T08:42:27.369Z,39.38
2022-10-21T08:43:27.369Z,39.38
2022-10-21T08:44:27.335Z,45.00
2022-10-21T08:45:27.324Z,45.00
2022-10-21T08:46:27.303Z,45.00
2022-10-21T08:47:27.316Z,45.00
2022-10-21T08:48:27.305Z,45.00
2022-10-21T08:49:29.895Z,45.00
2022-10-21T08:50:27.265Z,45.00
2022-10-21T08:51:27.250Z,45.00
2022-10-21T08:52:27.262Z,45.00
2022-10-21T08:53:27.226Z,45.00
2022-10-21T08:54:27.238Z,45.00
2022-10-21T08:55:27.211Z,45.00
2022-10-21T08:56:27.223Z,45.00
2022-10-21T08:57:27.202Z,45.00
2022-10-21T08:58:27.196Z,45.00
2022-10-21T08:59:27.159Z,45.00
2022-10-21T09:00:27.150Z,45.00
2022-10-21T09:01:27.288Z,45.00
2022-10-21T09:02:27.460Z,45.00
2022-10-21T09:03:28.476Z,45.00
2022-10-21T09:04:32.432Z,45.00
2022-10-21T09:06:31.064Z,45.00
2022-10-21T09:07:30.970Z,45.00
2022-10-21T09:08:31.041Z,45.00
2022-10-21T09:09:30.959Z,45.00
2022-10-21T09:10:30.879Z,45.00
2022-10-21T09:11:30.882Z,45.00
2022-10-21T09:12:30.854Z,45.00
2022-10-21T09:13:30.852Z,45.00
2022-10-21T09:15:30.814Z,50.62
2022-10-21T09:16:30.814Z,50.62
2022-10-21T09:17:38.689Z,50.62
2022-10-21T09:18:30.811Z,50.62
2022-10-21T09:19:30.761Z,50.62
2022-10-21T09:20:30.762Z,50.62
2022-10-21T09:21:30.729Z,50.62
2022-10-21T09:22:35.360Z,50.62
2022-10-21T09:24:31.037Z,50.62
